Time;durP1;ratioP1;P1;durP2;ratioP2;P2;SDS_P1;SDS_P2;PMS_P1;PMS_P2;Temp;Humidity;BMP_temperature;BMP_pressure;BME280_temperature;BME280_humidity;BME280_pressure;Samples;Min_cycle;Max_cycle;Signal;HPM_P1;HPM_P2
2021/08/29 00:01:52;;;;;;;1.40;1.30;;;11.00;99.90;10.70;96624.00;;;;5107389;28;20218;-70
2021/08/29 00:04:41;;;;;;;1.20;1.10;;;10.90;99.90;10.70;96610.00;;;;5079524;28;20203;-69
2021/08/29 00:07:30;;;;;;;3.40;1.30;;;10.90;99.90;10.70;96618.00;;;;5105908;28;20195;-70
2021/08/29 00:10:21;;;;;;;1.40;1.30;;;10.90;99.90;10.70;96618.00;;;;5103213;28;20194;-69
2021/08/29 00:13:09;;;;;;;1.47;1.37;;;10.90;99.90;10.80;96625.00;;;;5106192;28;20194;-70
2021/08/29 00:15:58;;;;;;;1.53;1.43;;;10.90;99.90;10.80;96622.00;;;;5106397;28;20598;-69
2021/08/29 00:18:47;;;;;;;2.37;1.33;;;10.90;99.90;10.80;96614.00;;;;5106239;28;20199;-70
2021/08/29 00:21:36;;;;;;;1.00;1.00;;;10.90;99.90;10.90;96612.00;;;;5105447;28;20214;-70
2021/08/29 00:24:25;;;;;;;1.40;1.30;;;10.90;99.90;10.90;96609.00;;;;5106400;28;20190;-69
2021/08/29 00:27:15;;;;;;;1.40;1.30;;;10.90;99.90;10.90;96607.00;;;;5106341;28;20735;-70
2021/08/29 00:30:05;;;;;;;1.37;1.10;;;10.90;99.90;10.70;96606.00;;;;5108036;27;20203;-70
2021/08/29 00:32:54;;;;;;;1.23;1.13;;;11.00;99.90;10.70;96602.00;;;;5104135;28;20211;-70
2021/08/29 00:35:43;;;;;;;1.20;1.10;;;10.90;99.90;10.60;96602.00;;;;5106998;28;20224;-70
2021/08/29 00:38:32;;;;;;;1.47;1.37;;;10.90;99.90;10.60;96594.00;;;;5106187;28;20198;-70
2021/08/29 00:41:21;;;;;;;1.03;1.00;;;10.80;99.90;10.60;96588.00;;;;5105786;28;20225;-70
2021/08/29 00:44:12;;;;;;;1.30;1.20;;;10.80;99.90;10.50;96587.00;;;;5106116;28;20234;-70
2021/08/29 00:47:04;;;;;;;2.73;2.57;;;10.70;99.90;10.60;96592.00;;;;5106595;28;20221;-69
2021/08/29 00:49:53;;;;;;;1.63;1.23;;;10.70;99.90;10.40;96589.00;;;;5107010;28;20454;-70
2021/08/29 00:52:42;;;;;;;1.97;1.20;;;10.70;99.90;10.50;96596.00;;;;5105589;28;20222;-70
2021/08/29 00:55:32;;;;;;;1.33;0.90;;;10.60;99.90;10.40;96590.00;;;;5106163;28;20202;-70
2021/08/29 00:58:23;;;;;;;2.63;1.33;;;10.70;99.90;10.40;96590.00;;;;5105905;28;20202;-70
2021/08/29 01:01:16;;;;;;;2.23;1.10;;;10.60;99.90;10.30;96585.00;;;;5106287;28;20603;-69
2021/08/29 01:04:10;;;;;;;1.00;0.90;;;10.60;99.90;10.20;96589.00;;;;5105576;28;20225;-69
2021/08/29 01:07:08;;;;;;;1.67;1.27;;;10.50;99.90;10.10;96593.00;;;;5106339;28;20198;-70
2021/08/29 01:10:06;;;;;;;1.00;0.93;;;10.50;99.90;10.10;96596.00;;;;5105953;28;20563;-70
2021/08/29 01:12:57;;;;;;;1.30;1.20;;;10.40;99.90;10.10;96599.00;;;;5105423;28;20214;-70
2021/08/29 01:15:49;;;;;;;1.43;1.33;;;10.40;99.90;10.00;96597.00;;;;5107379;28;20490;-70
2021/08/29 01:18:41;;;;;;;1.47;1.03;;;10.40;99.90;10.20;96605.00;;;;5104643;28;20299;-70
2021/08/29 01:21:34;;;;;;;2.53;0.90;;;10.40;99.90;10.20;96609.00;;;;5105859;28;20218;-69
2021/08/29 01:24:25;;;;;;;1.23;1.13;;;10.30;99.90;10.30;96596.00;;;;5104650;28;20790;-70
2021/08/29 01:27:21;;;;;;;1.53;1.07;;;10.40;99.90;10.30;96591.00;;;;5107705;28;20201;-70
2021/08/29 01:30:13;;;;;;;1.47;1.37;;;10.30;99.90;10.20;96596.00;;;;5109881;28;20206;-70
2021/08/29 01:33:02;;;;;;;1.23;0.90;;;10.30;99.90;10.10;96589.00;;;;5108934;28;20218;-70
2021/08/29 01:35:52;;;;;;;1.37;1.23;;;10.30;99.90;9.90;96584.00;;;;5110467;28;20202;-70
2021/08/29 01:38:42;;;;;;;1.10;1.00;;;10.30;99.90;9.80;96595.00;;;;5110204;28;20199;-69
2021/08/29 01:41:33;;;;;;;2.20;1.10;;;10.20;99.90;9.90;96591.00;;;;5110227;28;20215;-70
2021/08/29 01:44:23;;;;;;;1.07;1.00;;;10.20;99.90;9.90;96581.00;;;;5108639;28;20218;-70
2021/08/29 01:47:16;;;;;;;2.83;1.10;;;10.10;99.90;10.00;96580.00;;;;5106485;28;20191;-70
2021/08/29 01:50:06;;;;;;;1.53;1.00;;;10.10;99.90;10.00;96578.00;;;;5088708;28;20210;-70
2021/08/29 01:52:55;;;;;;;1.37;1.27;;;10.10;99.90;10.00;96586.00;;;;5109401;28;20221;-70
2021/08/29 01:55:44;;;;;;;1.00;1.00;;;10.20;99.90;10.10;96580.00;;;;5109903;28;20683;-70
2021/08/29 01:58:33;;;;;;;1.07;1.00;;;10.10;99.90;10.00;96587.00;;;;5108528;28;20204;-69
2021/08/29 02:01:22;;;;;;;1.23;1.13;;;10.10;99.90;9.90;96586.00;;;;5109677;28;20229;-69
2021/08/29 02:04:13;;;;;;;1.10;1.00;;;10.10;99.90;9.90;96580.00;;;;5108062;28;20689;-69
2021/08/29 02:07:14;;;;;;;1.20;1.10;;;10.10;99.90;9.90;96582.00;;;;5106311;28;20194;-68
2021/08/29 02:10:07;;;;;;;2.93;1.23;;;10.10;99.90;9.60;96570.00;;;;5108249;28;20586;-67
2021/08/29 02:13:04;;;;;;;0.97;0.97;;;10.00;99.90;9.60;96571.00;;;;5108830;28;20218;-68
2021/08/29 02:15:58;;;;;;;1.00;0.90;;;10.00;99.90;9.60;96568.00;;;;5108184;28;20203;-69
2021/08/29 02:18:53;;;;;;;1.70;1.00;;;9.90;99.90;9.60;96577.00;;;;5101860;28;20195;-69
2021/08/29 02:21:44;;;;;;;0.80;0.80;;;9.90;99.90;9.50;96567.00;;;;5104440;28;20222;-69
2021/08/29 02:24:33;;;;;;;1.17;1.07;;;9.90;99.90;9.50;96574.00;;;;5100736;28;20218;-70
2021/08/29 02:27:22;;;;;;;6.70;1.50;;;9.80;99.90;9.50;96564.00;;;;5108198;28;20221;-69
2021/08/29 02:30:13;;;;;;;2.00;1.20;;;9.80;99.90;9.60;96560.00;;;;5109535;28;20194;-69
2021/08/29 02:33:02;;;;;;;1.10;1.00;;;9.80;99.90;9.50;96554.00;;;;5108334;28;20230;-69
2021/08/29 02:35:53;;;;;;;1.03;1.03;;;9.80;99.90;9.50;96558.00;;;;5108573;28;20205;-69
2021/08/29 02:38:44;;;;;;;1.27;1.17;;;9.80;99.90;9.60;96564.00;;;;5106651;28;20199;-69
2021/08/29 02:41:37;;;;;;;1.00;1.00;;;9.80;99.90;9.60;96558.00;;;;5107540;28;20219;-69
2021/08/29 02:44:27;;;;;;;1.03;0.93;;;9.80;99.90;9.60;96565.00;;;;5107774;28;20704;-69
2021/08/29 02:47:16;;;;;;;2.10;1.10;;;9.80;99.90;9.60;96550.00;;;;5107174;28;20217;-69
2021/08/29 02:50:07;;;;;;;1.40;1.30;;;9.80;99.90;9.60;96545.00;;;;5106836;28;20206;-69
2021/08/29 02:52:57;;;;;;;1.67;1.57;;;9.80;99.90;9.60;96555.00;;;;5102299;28;20244;-68
2021/08/29 02:55:54;;;;;;;1.20;1.10;;;9.70;99.90;9.40;96559.00;;;;5108471;28;20206;-69
2021/08/29 02:58:46;;;;;;;1.20;1.10;;;9.70;99.90;9.40;96560.00;;;;5107385;28;20198;-69
2021/08/29 03:01:35;;;;;;;1.23;1.13;;;9.70;99.90;9.40;96563.00;;;;5107620;28;20798;-69
2021/08/29 03:04:24;;;;;;;1.17;1.07;;;9.70;99.90;9.40;96560.00;;;;5107712;28;20315;-68
2021/08/29 03:07:14;;;;;;;0.97;0.80;;;9.70;99.90;9.20;96558.00;;;;5108236;28;20212;-69
2021/08/29 03:10:04;;;;;;;1.77;1.23;;;9.60;99.90;9.20;96551.00;;;;5107774;28;20195;-69
2021/08/29 03:12:55;;;;;;;0.80;0.80;;;9.60;99.90;9.20;96546.00;;;;5107114;28;20218;-69
2021/08/29 03:15:44;;;;;;;1.30;0.93;;;9.50;99.90;9.30;96553.00;;;;5107065;28;20191;-69
2021/08/29 03:18:34;;;;;;;1.00;1.00;;;9.50;99.90;9.30;96549.00;;;;5100627;28;20705;-69
2021/08/29 03:21:23;;;;;;;2.10;1.60;;;9.50;99.90;9.30;96545.00;;;;5107429;28;20214;-69
2021/08/29 03:24:14;;;;;;;1.20;1.10;;;9.50;99.90;9.20;96542.00;;;;5106783;28;20229;-69
2021/08/29 03:27:03;;;;;;;1.00;0.90;;;9.50;99.90;9.30;96544.00;;;;5106569;28;20194;-69
2021/08/29 03:29:54;;;;;;;1.20;1.10;;;9.50;99.90;9.40;96544.00;;;;5106963;28;20213;-69
2021/08/29 03:32:43;;;;;;;2.10;1.90;;;9.50;99.90;9.40;96543.00;;;;5106258;28;20221;-69
2021/08/29 03:35:33;;;;;;;1.10;1.00;;;9.50;99.90;9.40;96542.00;;;;5107307;28;20207;-69
2021/08/29 03:38:23;;;;;;;1.20;1.10;;;9.60;99.90;9.30;96548.00;;;;5107578;28;20588;-70
2021/08/29 03:41:14;;;;;;;0.93;0.93;;;9.50;99.90;9.40;96553.00;;;;5106239;28;20324;-69
2021/08/29 03:44:04;;;;;;;3.80;1.53;;;9.50;99.90;9.40;96554.00;;;;5106052;28;20228;-69
2021/08/29 03:46:55;;;;;;;1.13;1.03;;;9.50;99.90;9.40;96543.00;;;;5105142;28;20587;-69
2021/08/29 03:49:45;;;;;;;5.70;1.17;;;9.60;99.90;9.20;96548.00;;;;5105583;28;20653;-69
2021/08/29 03:52:35;;;;;;;1.00;1.00;;;9.50;99.90;9.20;96549.00;;;;5105642;28;20217;-69
2021/08/29 03:55:25;;;;;;;0.87;0.87;;;9.50;99.90;9.30;96546.00;;;;5107126;28;20669;-69
2021/08/29 03:58:14;;;;;;;1.30;1.10;;;9.50;99.90;9.30;96555.00;;;;5101019;28;20699;-69
2021/08/29 04:01:03;;;;;;;1.10;1.00;;;9.50;99.90;9.10;96552.00;;;;5083846;28;20214;-69
2021/08/29 04:03:54;;;;;;;1.07;0.80;;;9.40;99.90;9.20;96555.00;;;;5081052;28;20203;-69
2021/08/29 04:06:44;;;;;;;0.83;0.83;;;9.40;99.90;9.20;96543.00;;;;5085193;28;20203;-69
2021/08/29 04:09:37;;;;;;;1.47;1.37;;;9.40;99.90;9.20;96542.00;;;;5097963;28;20514;-69
2021/08/29 04:12:29;;;;;;;1.27;1.17;;;9.40;99.90;9.10;96549.00;;;;5085488;28;20698;-69
2021/08/29 04:15:21;;;;;;;1.20;1.17;;;9.40;99.90;9.00;96537.00;;;;5087932;28;20666;-68
2021/08/29 04:18:10;;;;;;;0.90;0.90;;;9.40;99.90;8.80;96543.00;;;;5087250;28;20205;-69
2021/08/29 04:21:01;;;;;;;3.80;1.07;;;9.30;99.90;8.70;96545.00;;;;5086374;28;20210;-69
2021/08/29 04:23:51;;;;;;;1.30;1.20;;;9.20;99.90;8.70;96548.00;;;;5086783;28;20203;-69
2021/08/29 04:26:40;;;;;;;0.83;0.83;;;9.20;99.90;8.80;96538.00;;;;5085813;28;20195;-69
2021/08/29 04:29:30;;;;;;;0.97;0.97;;;9.10;99.90;8.90;96537.00;;;;5086332;28;20750;-69
2021/08/29 04:32:21;;;;;;;0.93;0.93;;;9.10;99.90;9.00;96532.00;;;;5085501;28;20223;-69
2021/08/29 04:35:10;;;;;;;1.33;1.23;;;9.10;99.90;9.00;96539.00;;;;5086561;28;20192;-69
2021/08/29 04:38:00;;;;;;;3.67;1.07;;;9.20;99.90;9.00;96535.00;;;;5085498;28;20203;-69
2021/08/29 04:40:49;;;;;;;2.93;1.10;;;9.10;99.90;9.00;96555.00;;;;5085899;28;20198;-69
2021/08/29 04:43:38;;;;;;;1.23;1.13;;;9.20;99.90;9.00;96546.00;;;;5085235;28;20199;-69
2021/08/29 04:46:27;;;;;;;1.20;1.20;;;9.20;99.90;8.90;96553.00;;;;5085870;28;20226;-69
2021/08/29 04:49:16;;;;;;;1.03;0.93;;;9.20;99.90;9.00;96551.00;;;;5105759;28;20248;-68
2021/08/29 04:52:06;;;;;;;0.93;0.93;;;9.20;99.90;9.00;96550.00;;;;5104494;28;20222;-68
2021/08/29 04:54:56;;;;;;;0.97;0.97;;;9.20;99.90;9.10;96552.00;;;;5106212;28;20204;-69
2021/08/29 04:57:45;;;;;;;2.10;0.90;;;9.20;99.90;9.20;96560.00;;;;5106713;28;20209;-69
2021/08/29 05:00:34;;;;;;;2.17;1.07;;;9.20;99.90;8.90;96550.00;;;;5105417;28;20202;-68
2021/08/29 05:03:25;;;;;;;1.00;1.00;;;9.20;99.90;9.00;96557.00;;;;5109535;28;20206;-69
2021/08/29 05:06:14;;;;;;;0.80;0.80;;;9.20;99.90;9.10;96552.00;;;;5109576;28;20226;-69
2021/08/29 05:09:03;;;;;;;1.03;1.03;;;9.20;99.90;9.10;96551.00;;;;5101712;28;20202;-69
2021/08/29 05:11:53;;;;;;;1.20;1.10;;;9.30;99.90;9.20;96555.00;;;;5089305;28;20237;-69
2021/08/29 05:14:42;;;;;;;2.10;1.20;;;9.30;99.90;9.10;96556.00;;;;5089438;28;20199;-68
2021/08/29 05:17:31;;;;;;;1.20;1.10;;;9.30;99.90;9.00;96554.00;;;;5089837;28;20207;-69
2021/08/29 05:20:20;;;;;;;0.97;0.90;;;9.30;99.90;9.10;96553.00;;;;5090230;28;20199;-69
2021/08/29 05:23:09;;;;;;;1.07;1.07;;;9.30;99.90;9.30;96559.00;;;;5090191;28;20609;-68
2021/08/29 05:25:58;;;;;;;0.90;0.90;;;9.40;99.90;9.20;96557.00;;;;5089938;28;20222;-68
2021/08/29 05:28:48;;;;;;;1.30;1.20;;;9.40;99.90;9.40;96558.00;;;;5088987;28;20207;-69
2021/08/29 05:31:37;;;;;;;1.13;0.90;;;9.40;99.90;9.40;96567.00;;;;5088382;28;20222;-69
2021/08/29 05:34:26;;;;;;;1.03;0.93;;;9.50;99.90;9.50;96546.00;;;;5089279;28;20199;-68
2021/08/29 05:37:15;;;;;;;1.83;1.20;;;9.50;99.90;9.40;96550.00;;;;5088034;28;20615;-68
2021/08/29 05:40:07;;;;;;;2.30;1.10;;;9.50;99.90;9.20;96543.00;;;;5089740;28;20213;-68
2021/08/29 05:42:56;;;;;;;1.17;1.17;;;9.50;99.90;9.20;96548.00;;;;5089106;28;20211;-69
2021/08/29 05:45:47;;;;;;;1.00;0.90;;;9.50;99.90;9.20;96547.00;;;;5090420;28;20598;-69
2021/08/29 05:48:35;;;;;;;1.60;1.30;;;9.50;99.90;9.30;96551.00;;;;5089282;28;20203;-68
2021/08/29 05:51:24;;;;;;;1.67;1.53;;;9.60;99.90;9.30;96546.00;;;;5090072;28;20230;-68
2021/08/29 05:54:14;;;;;;;1.60;1.50;;;9.50;99.90;9.40;96537.00;;;;5088049;28;20195;-68
2021/08/29 05:57:03;;;;;;;1.50;1.40;;;9.60;99.90;9.40;96538.00;;;;5088330;28;20206;-68
2021/08/29 05:59:52;;;;;;;1.27;1.17;;;9.60;99.90;9.70;96533.00;;;;5089414;28;20200;-69
2021/08/29 06:02:42;;;;;;;1.47;1.37;;;9.70;99.90;9.80;96540.00;;;;5087478;28;20223;-69
2021/08/29 06:05:32;;;;;;;1.70;1.60;;;9.70;99.90;9.80;96538.00;;;;5080061;28;20702;-69
2021/08/29 06:08:24;;;;;;;2.20;1.27;;;9.80;99.90;9.90;96539.00;;;;5090022;28;20214;-69
2021/08/29 06:11:13;;;;;;;1.00;0.90;;;9.80;99.90;9.90;96535.00;;;;5105048;28;20229;-68
2021/08/29 06:14:02;;;;;;;2.17;1.40;;;9.90;99.90;10.10;96529.00;;;;5106435;28;20665;-69
2021/08/29 06:16:51;;;;;;;1.93;1.10;;;10.00;99.90;10.20;96534.00;;;;5108323;28;20881;-68
2021/08/29 06:19:41;;;;;;;1.23;1.13;;;10.00;99.90;10.10;96522.00;;;;5101653;28;20198;-68
2021/08/29 06:22:30;;;;;;;1.80;1.00;;;10.10;99.90;10.10;96521.00;;;;5100570;28;20223;-69
2021/08/29 06:25:19;;;;;;;1.17;1.00;;;10.60;99.90;10.20;96523.00;;;;5109925;28;20267;-68
2021/08/29 06:28:08;;;;;;;1.30;1.20;;;10.20;99.90;10.10;96518.00;;;;5108003;28;20199;-68
2021/08/29 06:30:57;;;;;;;1.43;1.20;;;10.30;99.90;10.20;96513.00;;;;5067925;28;20212;-69
2021/08/29 06:33:45;;;;;;;0.77;0.77;;;10.30;99.90;10.20;96510.00;;;;5067567;28;20687;-68
2021/08/29 06:36:36;;;;;;;2.27;0.87;;;10.30;99.90;10.20;96514.00;;;;5067532;28;20667;-69
2021/08/29 06:39:25;;;;;;;0.67;0.67;;;10.40;99.90;10.30;96514.00;;;;5068870;28;20667;-69
2021/08/29 06:42:14;;;;;;;1.20;1.10;;;10.40;99.90;10.40;96496.00;;;;5067826;28;20216;-69
2021/08/29 06:45:03;;;;;;;1.27;1.00;;;10.50;99.90;10.60;96514.00;;;;5080173;28;20187;-69
2021/08/29 06:47:51;;;;;;;1.13;1.03;;;10.50;99.90;10.70;96518.00;;;;5085496;28;20288;-69
2021/08/29 06:50:40;;;;;;;1.43;1.03;;;10.70;99.90;10.80;96516.00;;;;5087321;28;20191;-69
2021/08/29 06:53:31;;;;;;;1.23;1.13;;;10.80;99.90;11.00;96517.00;;;;5086871;28;20217;-68
2021/08/29 06:56:19;;;;;;;1.37;1.27;;;10.90;99.90;11.40;96512.00;;;;5087918;28;20205;-69
2021/08/29 06:59:08;;;;;;;0.90;0.90;;;11.10;99.90;11.60;96515.00;;;;5089015;27;20195;-68
2021/08/29 07:01:57;;;;;;;1.17;0.97;;;11.20;99.90;11.80;96521.00;;;;5088203;28;20223;-69
2021/08/29 07:04:46;;;;;;;2.53;1.50;;;11.50;99.90;12.10;96518.00;;;;5087859;28;20211;-69
2021/08/29 07:07:35;;;;;;;1.73;1.63;;;11.60;99.90;12.40;96508.00;;;;5087709;28;20219;-68
2021/08/29 07:10:26;;;;;;;1.90;1.77;;;11.80;99.90;12.70;96518.00;;;;5106492;28;20233;-69
2021/08/29 07:13:15;;;;;;;1.43;1.27;;;12.10;99.90;12.80;96518.00;;;;5106258;28;20293;-69
2021/08/29 07:16:04;;;;;;;1.73;1.63;;;12.30;99.90;12.80;96507.00;;;;5108095;28;20207;-69
2021/08/29 07:18:53;;;;;;;2.30;2.10;;;12.50;99.90;13.20;96497.00;;;;5108790;28;20199;-68
2021/08/29 07:21:42;;;;;;;2.30;1.83;;;12.70;99.90;13.70;96504.00;;;;5106659;28;20218;-69
2021/08/29 07:24:30;;;;;;;2.47;2.27;;;13.00;99.90;14.10;96510.00;;;;5106861;28;20195;-69
2021/08/29 07:27:21;;;;;;;2.10;1.63;;;13.30;99.90;14.00;96519.00;;;;5107706;28;20222;-69
2021/08/29 07:30:11;;;;;;;2.07;1.87;;;13.50;99.90;14.30;96503.00;;;;5106248;28;20194;-69
2021/08/29 07:33:00;;;;;;;1.60;1.47;;;13.70;99.90;14.50;96507.00;;;;5105553;28;20223;-69
2021/08/29 07:35:49;;;;;;;2.30;1.40;;;13.90;99.90;14.70;96503.00;;;;5106087;28;20198;-69
2021/08/29 07:38:38;;;;;;;1.53;1.40;;;14.10;99.90;14.90;96507.00;;;;5105816;28;20199;-69
2021/08/29 07:41:27;;;;;;;1.03;1.00;;;14.30;99.90;15.10;96502.00;;;;5085194;28;20233;-70
2021/08/29 07:44:17;;;;;;;2.37;1.30;;;16.00;99.90;15.30;96499.00;;;;5085811;28;20548;-70
2021/08/29 07:47:06;;;;;;;2.87;0.90;;;14.70;99.90;15.50;96500.00;;;;5087045;28;20657;-69
2021/08/29 07:49:55;;;;;;;1.57;1.00;;;14.90;99.90;15.50;96498.00;;;;5086303;28;20226;-71
2021/08/29 07:52:44;;;;;;;1.20;0.93;;;15.00;99.90;15.70;96494.00;;;;5079452;28;20708;-71
2021/08/29 07:55:33;;;;;;;1.70;1.40;;;15.20;99.90;15.70;96493.00;;;;5083747;28;20259;-70
2021/08/29 07:58:22;;;;;;;2.00;1.37;;;15.30;99.90;15.90;96490.00;;;;5085508;28;20203;-70
2021/08/29 08:01:12;;;;;;;2.67;1.23;;;15.40;99.90;15.90;96490.00;;;;5067755;28;20584;-70
2021/08/29 08:04:01;;;;;;;1.20;1.10;;;15.50;99.90;16.00;96477.00;;;;5065575;28;20196;-71
2021/08/29 08:06:50;;;;;;;1.40;0.97;;;15.60;99.90;16.30;96492.00;;;;5067142;28;20743;-71
2021/08/29 08:09:39;;;;;;;1.30;1.00;;;15.70;99.90;16.30;96484.00;;;;5085360;28;20199;-71
2021/08/29 08:12:28;;;;;;;2.77;1.00;;;15.90;99.90;16.40;96492.00;;;;5085317;28;20233;-71
2021/08/29 08:15:16;;;;;;;1.20;0.90;;;16.00;99.90;16.30;96489.00;;;;5085599;28;20195;-71
2021/08/29 08:18:07;;;;;;;1.03;0.80;;;16.00;99.90;16.50;96488.00;;;;5084869;28;20199;-72
2021/08/29 08:20:57;;;;;;;1.90;0.90;;;16.10;99.90;16.70;96479.00;;;;5085755;28;20199;-72
2021/08/29 08:23:46;;;;;;;0.67;0.60;;;16.20;99.90;17.00;96484.00;;;;5085179;28;20199;-71
2021/08/29 08:26:34;;;;;;;1.40;0.87;;;16.30;99.90;17.30;96492.00;;;;5085369;28;20215;-72
2021/08/29 08:44:29;;;;;;;0.60;0.50;;;17.40;99.90;18.30;96485.00;;;;4965132;28;20246;-73
2021/08/29 08:47:19;;;;;;;0.70;0.70;;;17.70;99.90;18.30;96468.00;;;;4964912;28;20238;-73
2021/08/29 08:50:12;;;;;;;0.70;0.70;;;17.80;99.90;18.50;96468.00;;;;4950523;29;20199;-73
2021/08/29 08:53:04;;;;;;;0.60;0.50;;;17.90;99.90;18.70;96463.00;;;;4950878;28;20597;-74
2021/08/29 08:55:53;;;;;;;1.10;0.70;;;18.00;99.90;18.90;96461.00;;;;4965674;28;20203;-73
2021/08/29 08:58:43;;;;;;;1.63;0.90;;;18.20;99.90;19.00;96453.00;;;;4958890;28;20208;-74
2021/08/29 09:01:34;;;;;;;0.63;0.63;;;18.30;99.90;19.30;96450.00;;;;4945112;28;20267;-74
2021/08/29 09:04:23;;;;;;;0.60;0.60;;;18.60;99.90;19.60;96455.00;;;;4944734;28;20230;-75
2021/08/29 09:07:12;;;;;;;0.50;0.50;;;18.80;99.90;19.80;96463.00;;;;4955819;28;20230;-74
2021/08/29 09:10:01;;;;;;;0.50;0.50;;;19.00;99.90;19.80;96459.00;;;;4952725;28;20390;-74
2021/08/29 09:12:58;;;;;;;0.63;0.63;;;19.10;99.90;20.10;96446.00;;;;4949967;28;20230;-75
2021/08/29 09:15:47;;;;;;;0.70;0.70;;;19.30;99.90;19.80;96456.00;;;;4965291;28;20203;-75
2021/08/29 09:18:48;;;;;;;0.93;0.63;;;19.40;99.90;20.40;96462.00;;;;4964817;28;20199;-75
2021/08/29 09:21:39;;;;;;;0.97;0.60;;;19.60;99.90;20.80;96458.00;;;;4965759;28;20808;-76
2021/08/29 09:24:30;;;;;;;0.50;0.50;;;19.80;99.90;20.90;96448.00;;;;4963761;28;20261;-74
2021/08/29 09:27:24;;;;;;;0.40;0.40;;;20.10;99.90;21.00;96454.00;;;;4965654;28;20231;-76
2021/08/29 09:30:15;;;;;;;0.63;0.50;;;20.20;99.90;20.20;96442.00;;;;4964985;28;20199;-75
2021/08/29 09:33:05;;;;;;;0.70;0.50;;;20.20;95.10;20.30;96477.00;;;;4965481;28;20226;-75
2021/08/29 09:35:55;;;;;;;0.50;0.30;;;20.10;95.90;19.90;96472.00;;;;4965508;28;20580;-76
2021/08/29 09:38:44;;;;;;;0.40;0.30;;;20.00;92.70;19.50;96437.00;;;;4966088;28;20207;-75
2021/08/29 09:41:33;;;;;;;1.10;1.00;;;19.80;90.50;19.60;96436.00;;;;4949424;28;20220;-75
2021/08/29 09:44:23;;;;;;;1.30;0.53;;;19.70;90.60;20.60;96455.00;;;;4946506;28;20676;-75
2021/08/29 09:47:13;;;;;;;0.70;0.40;;;19.80;91.30;21.20;96463.00;;;;4950583;28;20684;-76
2021/08/29 09:50:06;;;;;;;0.60;0.30;;;20.00;91.70;20.40;96462.00;;;;4950721;29;20227;-76
2021/08/29 09:53:05;;;;;;;0.63;0.40;;;20.00;90.30;19.80;96451.00;;;;4953040;28;20228;-76
2021/08/29 09:55:54;;;;;;;0.30;0.30;;;20.00;85.80;19.40;96446.00;;;;4949082;28;20200;-76
2021/08/29 09:58:43;;;;;;;1.07;0.50;;;19.80;83.60;19.00;96463.00;;;;4948142;28;20722;-75
2021/08/29 10:01:32;;;;;;;0.50;0.50;;;19.50;84.60;19.10;96473.00;;;;4949911;29;20654;-75
2021/08/29 10:04:20;;;;;;;0.30;0.30;;;19.30;82.80;19.30;96464.00;;;;4949223;29;20200;-75
2021/08/29 10:07:14;;;;;;;0.50;0.40;;;19.10;85.40;19.40;96475.00;;;;4949262;29;20220;-75
2021/08/29 10:10:25;;;;;;;0.20;0.20;;;19.10;89.10;19.40;96465.00;;;;4950390;29;20898;-75
2021/08/29 10:13:15;;;;;;;0.20;0.10;;;19.10;90.60;19.30;96473.00;;;;4949514;28;20196;-75
2021/08/29 10:16:05;;;;;;;0.60;0.20;;;19.10;91.60;19.50;96473.00;;;;4950330;29;20278;-75
2021/08/29 10:18:56;;;;;;;0.37;0.30;;;19.10;92.10;19.90;96458.00;;;;4953944;28;20595;-74
2021/08/29 10:21:45;;;;;;;0.30;0.30;;;19.20;92.70;20.40;96465.00;;;;4967548;28;20230;-77
2021/08/29 10:24:36;;;;;;;0.30;0.30;;;19.50;91.30;19.70;96462.00;;;;4969092;28;20195;-76
2021/08/29 10:27:27;;;;;;;0.73;0.30;;;19.60;89.80;19.40;96457.00;;;;4968137;28;20698;-75
2021/08/29 10:30:17;;;;;;;0.40;0.40;;;19.70;88.40;20.00;96463.00;;;;4968893;28;20207;-77
2021/08/29 10:33:06;;;;;;;0.60;0.30;;;19.60;87.50;20.30;96455.00;;;;4960728;28;20226;-77
2021/08/29 10:35:55;;;;;;;0.30;0.30;;;19.70;89.50;20.50;96456.00;;;;4969991;28;20584;-76
2021/08/29 10:38:46;;;;;;;0.50;0.30;;;19.90;86.60;21.50;96443.00;;;;4954040;28;20203;-75
2021/08/29 10:41:35;;;;;;;0.40;0.23;;;20.20;88.00;21.10;96423.00;;;;4959100;28;20223;-76
2021/08/29 10:44:26;;;;;;;1.57;0.33;;;20.40;83.80;21.30;96463.00;;;;4966809;28;20219;-76
2021/08/29 10:47:17;;;;;;;0.50;0.20;;;20.60;83.30;20.60;96455.00;;;;4967186;28;20195;-76
2021/08/29 10:50:14;;;;;;;0.30;0.23;;;20.70;82.90;20.60;96450.00;;;;4950050;28;20200;-74
2021/08/29 10:53:03;;;;;;;0.20;0.20;;;20.60;81.20;20.70;96421.00;;;;4950544;29;20515;-75
2021/08/29 10:55:51;;;;;;;0.60;0.40;;;20.50;80.30;21.40;96446.00;;;;4950857;29;20204;-75
2021/08/29 10:58:40;;;;;;;0.20;0.20;;;20.70;81.20;21.00;96439.00;;;;4948840;28;20315;-75
2021/08/29 11:01:37;;;;;;;0.20;0.20;;;20.90;79.90;20.70;96441.00;;;;4950889;29;20279;-74
2021/08/29 11:04:49;;;;;;;0.20;0.20;;;20.80;76.60;21.50;96438.00;;;;4950232;29;20703;-77
2021/08/29 11:07:51;;;;;;;0.40;0.30;;;20.90;78.40;21.30;96439.00;;;;4949929;29;20226;-76
2021/08/29 11:10:47;;;;;;;0.73;0.30;;;21.00;78.20;21.90;96370.00;;;;4949945;29;20211;-77
2021/08/29 11:13:41;;;;;;;0.23;0.23;;;21.30;78.90;22.80;96375.00;;;;4950303;28;20208;-77
2021/08/29 11:16:30;;;;;;;0.30;0.20;;;21.70;78.80;24.40;96395.00;;;;4965255;28;20686;-77
2021/08/29 11:19:20;;;;;;;0.30;0.20;;;22.40;80.60;24.80;96371.00;;;;4954955;28;20285;-75
2021/08/29 11:22:38;;;;;;;0.40;0.27;;;23.00;80.50;24.00;96421.00;;;;4965629;28;20224;-74
2021/08/29 11:25:28;;;;;;;0.43;0.20;;;23.40;73.30;22.60;96407.00;;;;4968265;28;20213;-72
2021/08/29 11:28:31;;;;;;;0.27;0.27;;;23.10;70.50;22.00;96417.00;;;;4967995;28;20239;-73
2021/08/29 11:31:50;;;;;;;0.53;0.30;;;22.60;70.50;22.50;96431.00;;;;4967199;28;20709;-71
2021/08/29 11:35:08;;;;;;;0.30;0.30;;;22.40;73.80;22.70;96433.00;;;;4966965;28;20211;-71
2021/08/29 11:38:13;;;;;;;0.20;0.20;;;22.30;74.60;23.70;96375.00;;;;4967572;28;20211;-75
2021/08/29 11:41:12;;;;;;;0.30;0.30;;;22.60;74.70;24.60;96376.00;;;;4967846;28;20243;-71
2021/08/29 11:44:01;;;;;;;0.40;0.30;;;23.10;74.10;24.10;96426.00;;;;4968914;28;20224;-70
2021/08/29 11:46:54;;;;;;;0.40;0.40;;;23.30;70.50;23.90;96408.00;;;;4969581;28;20264;-70
2021/08/29 11:49:54;;;;;;;0.20;0.20;;;23.30;70.50;23.90;96360.00;;;;4958864;28;20227;-68
2021/08/29 11:52:44;;;;;;;0.30;0.30;;;23.50;70.30;24.90;96416.00;;;;4967679;28;20238;-69
2021/08/29 11:55:33;;;;;;;0.20;0.20;;;23.70;71.30;24.70;96353.00;;;;4968273;28;20215;-69
2021/08/29 11:58:23;;;;;;;0.30;0.30;;;23.80;68.50;23.90;96416.00;;;;4964088;28;20204;-72
2021/08/29 12:01:13;;;;;;;0.20;0.20;;;24.00;64.10;25.10;96356.00;;;;4959146;28;20225;-71
2021/08/29 12:04:04;;;;;;;0.30;0.30;;;24.20;64.30;25.90;96354.00;;;;4968073;28;20220;-71
2021/08/29 12:07:05;;;;;;;0.43;0.27;;;24.60;60.50;23.90;96391.00;;;;4968029;28;20245;-70
2021/08/29 12:09:54;;;;;;;0.40;0.30;;;24.70;58.10;23.80;96365.00;;;;4968450;28;20237;-72
2021/08/29 12:12:46;;;;;;;0.30;0.20;;;24.40;57.70;23.90;96407.00;;;;4963684;28;20234;-76
2021/08/29 12:15:35;;;;;;;0.57;0.57;;;24.50;59.70;24.50;96346.00;;;;4954481;28;20720;-73
2021/08/29 12:18:26;;;;;;;0.50;0.43;;;24.60;59.20;25.20;96361.00;;;;4956582;28;20210;-73
2021/08/29 12:21:16;;;;;;;0.30;0.30;;;24.60;58.30;24.50;96393.00;;;;4960486;28;20221;-71
2021/08/29 12:24:08;;;;;;;1.27;0.40;;;24.60;56.10;23.90;96355.00;;;;4968957;28;20192;-70
2021/08/29 12:27:03;;;;;;;0.50;0.30;;;24.70;55.40;25.90;96427.00;;;;4957290;28;20679;-71
2021/08/29 12:29:54;;;;;;;0.40;0.40;;;24.90;57.20;24.70;96367.00;;;;4957593;28;20234;-74
2021/08/29 12:32:43;;;;;;;0.40;0.40;;;24.70;57.10;24.50;96439.00;;;;4964719;28;20230;-70
2021/08/29 12:35:33;;;;;;;0.40;0.40;;;24.50;56.70;23.30;96430.00;;;;4964584;28;20681;-69
2021/08/29 12:38:24;;;;;;;0.33;0.33;;;24.10;56.80;23.90;96348.00;;;;4955047;28;20209;-71
2021/08/29 12:41:17;;;;;;;0.30;0.30;;;23.90;57.50;23.80;96431.00;;;;4965598;28;20232;-69
2021/08/29 12:44:07;;;;;;;0.30;0.30;;;23.70;58.50;24.30;96365.00;;;;4964980;28;20619;-72
2021/08/29 12:46:55;;;;;;;0.50;0.50;;;24.60;58.70;24.70;96397.00;;;;4965192;28;20207;-75
2021/08/29 12:49:45;;;;;;;0.40;0.40;;;23.80;58.70;25.00;96354.00;;;;4956320;28;20608;-73
2021/08/29 12:52:39;;;;;;;0.33;0.30;;;24.10;57.70;26.80;96363.00;;;;4966867;28;20242;-78
2021/08/29 12:55:31;;;;;;;0.40;0.40;;;24.70;58.40;25.70;96432.00;;;;4966247;28;20229;-70
2021/08/29 12:58:25;;;;;;;0.40;0.40;;;25.00;55.30;23.00;96351.00;;;;4966905;28;20209;-72
2021/08/29 13:01:14;;;;;;;0.40;0.30;;;24.30;53.80;23.40;96420.00;;;;4966203;28;20755;-72